Time;durP1;ratioP1;P1;durP2;ratioP2;P2;SDS_P1;SDS_P2;PMS_P1;PMS_P2;Temp;Humidity;BMP_temperature;BMP_pressure;BME280_temperature;BME280_humidity;BME280_pressure;Samples;Min_cycle;Max_cycle;Signal;HPM_P1;HPM_P2
2023/02/04 00:01:41;;;;;;;2.28;1.10;;;5.40;99.70;;;;;;5049074;28;20032;-69
2023/02/04 00:04:07;;;;;;;4.35;1.20;;;5.40;99.70;;;;;;5041786;28;20025;-69
2023/02/04 00:06:32;;;;;;;1.10;0.90;;;5.40;99.70;;;;;;5044619;28;20111;-68
2023/02/04 00:08:58;;;;;;;7.53;2.42;;;5.40;99.70;;;;;;5048212;28;20563;-68
2023/02/04 00:11:24;;;;;;;5.68;1.77;;;5.50;99.70;;;;;;5046863;28;20036;-68
2023/02/04 00:13:50;;;;;;;3.60;1.50;;;5.50;99.60;;;;;;5044539;28;20032;-66
2023/02/04 00:16:15;;;;;;;1.02;1.00;;;5.50;99.80;;;;;;5046957;28;20082;-67
2023/02/04 00:18:41;;;;;;;1.00;0.85;;;5.60;99.80;;;;;;5048410;28;20032;-67
2023/02/04 00:21:07;;;;;;;1.70;0.90;;;5.50;99.60;;;;;;5049527;28;20875;-67
2023/02/04 00:23:32;;;;;;;4.90;1.27;;;5.60;99.80;;;;;;5049802;28;20820;-67
2023/02/04 00:25:58;;;;;;;1.13;0.90;;;5.70;99.60;;;;;;5050328;28;20550;-67
2023/02/04 00:28:24;;;;;;;0.93;0.93;;;5.60;99.50;;;;;;5050302;28;20118;-68
2023/02/04 00:30:50;;;;;;;3.45;1.25;;;5.70;99.60;;;;;;5034011;28;20116;-68
2023/02/04 00:33:16;;;;;;;1.45;0.98;;;5.70;99.60;;;;;;5052172;28;20029;-67
2023/02/04 00:35:42;;;;;;;1.85;1.10;;;5.70;99.30;;;;;;5030376;28;20035;-67
2023/02/04 00:38:08;;;;;;;4.75;1.50;;;5.60;99.40;;;;;;5052143;28;20039;-67
2023/02/04 00:40:34;;;;;;;2.53;1.02;;;5.60;99.40;;;;;;5035577;28;20039;-67
2023/02/04 00:42:59;;;;;;;2.55;1.13;;;5.60;99.40;;;;;;5049675;28;20032;-65
2023/02/04 00:45:25;;;;;;;3.47;1.05;;;5.60;99.30;;;;;;5051978;28;20496;-67
2023/02/04 00:47:51;;;;;;;1.30;0.90;;;5.60;98.70;;;;;;5050913;28;20040;-66
2023/02/04 00:50:17;;;;;;;2.83;1.10;;;5.60;98.80;;;;;;5031059;28;20039;-67
2023/02/04 00:52:43;;;;;;;1.65;0.75;;;5.50;99.00;;;;;;5033313;28;20039;-67
2023/02/04 00:55:12;;;;;;;1.35;1.05;;;5.50;99.00;;;;;;5049394;28;20127;-67
2023/02/04 00:57:38;;;;;;;1.55;1.00;;;5.40;99.10;;;;;;5033994;28;20098;-67
2023/02/04 01:00:05;;;;;;;1.95;0.70;;;5.40;99.00;;;;;;5049371;28;20024;-67
2023/02/04 01:02:31;;;;;;;2.20;0.95;;;5.30;98.70;;;;;;5049860;28;20403;-67
2023/02/04 01:04:57;;;;;;;2.13;0.93;;;5.30;98.90;;;;;;5035331;28;20024;-67
2023/02/04 01:07:22;;;;;;;3.20;0.93;;;5.30;98.80;;;;;;5038611;28;20027;-67
2023/02/04 01:09:48;;;;;;;0.60;0.60;;;5.30;98.90;;;;;;5031560;28;20025;-66
2023/02/04 01:12:14;;;;;;;1.45;0.77;;;5.30;98.80;;;;;;5050061;28;20040;-67
2023/02/04 01:14:40;;;;;;;0.98;0.60;;;5.30;99.00;;;;;;5048786;28;20032;-66
2023/02/04 01:17:05;;;;;;;1.27;0.70;;;5.20;98.80;;;;;;5031046;28;20032;-67
2023/02/04 01:19:31;;;;;;;2.05;0.73;;;5.20;98.90;;;;;;5047664;28;20037;-66
2023/02/04 01:21:57;;;;;;;1.50;0.80;;;5.10;98.90;;;;;;5051743;28;20025;-67
2023/02/04 01:24:23;;;;;;;0.98;0.70;;;5.10;98.90;;;;;;5049430;28;20040;-66
2023/02/04 01:27:07;;;;;;;0.95;0.70;;;5.10;98.80;;;;;;5049179;28;20154;-66
2023/02/04 01:29:33;;;;;;;1.33;0.55;;;5.00;98.60;;;;;;5032363;28;20484;-67
2023/02/04 01:31:59;;;;;;;1.50;0.75;;;5.00;98.50;;;;;;5049336;28;20037;-66
2023/02/04 01:34:30;;;;;;;0.75;0.75;;;4.90;98.50;;;;;;5051224;28;20028;-67
2023/02/04 01:36:56;;;;;;;0.77;0.50;;;4.90;98.50;;;;;;5027262;28;20029;-67
2023/02/04 01:39:21;;;;;;;2.70;0.68;;;4.80;98.40;;;;;;5043253;28;20884;-66
2023/02/04 01:41:47;;;;;;;2.10;1.05;;;4.70;98.60;;;;;;5031816;28;20028;-66
2023/02/04 01:44:13;;;;;;;1.30;0.60;;;4.50;98.60;;;;;;5050777;28;20036;-67
2023/02/04 01:46:40;;;;;;;0.63;0.63;;;4.50;98.70;;;;;;5048572;28;20021;-67
2023/02/04 01:49:06;;;;;;;0.93;0.52;;;4.40;98.80;;;;;;5046289;28;20036;-66
2023/02/04 01:51:32;;;;;;;0.95;0.63;;;4.30;98.70;;;;;;5031961;28;20052;-67
2023/02/04 01:53:59;;;;;;;0.70;0.60;;;4.30;98.90;;;;;;5047522;28;20161;-66
2023/02/04 01:56:26;;;;;;;0.95;0.70;;;4.30;99.20;;;;;;5048925;28;20053;-67
2023/02/04 01:58:54;;;;;;;1.33;0.98;;;4.30;99.40;;;;;;5031014;28;20076;-66
2023/02/04 02:01:40;;;;;;;1.33;0.68;;;4.30;99.60;;;;;;5009739;28;20063;-66
2023/02/04 02:04:12;;;;;;;2.17;0.70;;;4.40;99.80;;;;;;5046022;28;20904;-65
2023/02/04 02:06:41;;;;;;;1.02;0.65;;;4.40;99.90;;;;;;5032270;28;20258;-65
2023/02/04 02:09:06;;;;;;;1.23;0.65;;;4.50;99.90;;;;;;5048589;28;20036;-65
2023/02/04 02:11:32;;;;;;;0.85;0.70;;;4.50;99.90;;;;;;5044095;28;20033;-65
2023/02/04 02:13:59;;;;;;;2.45;0.68;;;4.50;99.80;;;;;;5029721;28;20068;-66
2023/02/04 02:16:25;;;;;;;1.33;0.63;;;4.50;99.80;;;;;;5033092;28;20032;-65
2023/02/04 02:18:53;;;;;;;1.05;0.70;;;4.40;99.60;;;;;;5042339;28;20033;-65
2023/02/04 02:21:46;;;;;;;1.05;0.70;;;4.30;99.50;;;;;;5046733;28;20495;-66
2023/02/04 02:24:30;;;;;;;1.23;0.80;;;4.30;99.40;;;;;;5033803;28;20029;-65
2023/02/04 02:26:59;;;;;;;0.75;0.63;;;4.10;99.30;;;;;;5045673;28;20484;-65
2023/02/04 02:29:26;;;;;;;1.40;0.57;;;4.10;99.20;;;;;;5028775;28;20852;-65
2023/02/04 02:31:55;;;;;;;1.10;0.75;;;3.90;99.30;;;;;;5031700;28;20947;-66
2023/02/04 02:34:20;;;;;;;1.67;0.65;;;3.90;99.30;;;;;;5044442;28;20115;-66
2023/02/04 02:36:46;;;;;;;3.40;0.50;;;3.80;99.40;;;;;;5029710;28;20400;-65
2023/02/04 02:39:12;;;;;;;1.02;0.45;;;3.80;99.40;;;;;;5049359;28;20440;-65
2023/02/04 02:41:38;;;;;;;2.92;0.60;;;3.70;99.30;;;;;;5029364;28;20033;-64
2023/02/04 02:44:04;;;;;;;2.28;0.68;;;3.70;99.20;;;;;;5030660;28;20032;-65
2023/02/04 02:46:30;;;;;;;0.70;0.50;;;3.60;99.00;;;;;;5049431;28;20025;-65
2023/02/04 02:48:56;;;;;;;1.15;0.63;;;3.60;99.40;;;;;;5033044;28;20205;-65
2023/02/04 02:51:22;;;;;;;1.55;0.57;;;3.60;99.10;;;;;;5047581;28;20087;-65
2023/02/04 02:53:49;;;;;;;0.50;0.50;;;3.50;99.40;;;;;;5049006;28;20037;-65
2023/02/04 02:56:18;;;;;;;2.05;0.45;;;3.40;99.40;;;;;;5051373;28;20036;-65
2023/02/04 02:58:44;;;;;;;1.38;0.40;;;3.40;99.50;;;;;;5029080;28;20029;-66
2023/02/04 03:01:10;;;;;;;0.88;0.65;;;3.40;99.60;;;;;;5031066;28;20075;-65
2023/02/04 03:03:50;;;;;;;2.55;0.55;;;3.30;99.60;;;;;;5049747;28;20028;-65
2023/02/04 03:06:25;;;;;;;1.85;0.70;;;3.30;99.60;;;;;;5027625;28;20021;-65
2023/02/04 03:08:54;;;;;;;1.63;0.47;;;3.20;99.50;;;;;;5032075;28;20724;-65
2023/02/04 03:11:21;;;;;;;1.65;0.70;;;3.20;99.50;;;;;;5028354;28;20052;-65
2023/02/04 03:13:48;;;;;;;0.93;0.40;;;3.10;99.50;;;;;;5026408;28;20098;-65
2023/02/04 03:16:14;;;;;;;0.60;0.32;;;3.10;99.60;;;;;;5031529;28;20035;-65
2023/02/04 03:18:40;;;;;;;1.67;0.55;;;3.10;99.70;;;;;;5048176;28;20028;-65
2023/02/04 03:21:07;;;;;;;2.15;0.52;;;3.00;99.80;;;;;;5028568;28;20021;-65
2023/02/04 03:23:34;;;;;;;4.07;0.90;;;3.00;99.80;;;;;;5031489;28;20028;-65
2023/02/04 03:26:03;;;;;;;1.52;0.60;;;2.90;99.90;;;;;;5027923;28;20047;-66
2023/02/04 03:28:30;;;;;;;0.88;0.55;;;2.90;99.90;;;;;;5048264;28;20793;-65
2023/02/04 03:30:57;;;;;;;1.50;0.43;;;2.90;99.90;;;;;;5046156;28;20036;-65
2023/02/04 03:33:25;;;;;;;2.45;0.80;;;2.80;99.90;;;;;;5049335;28;20662;-65
2023/02/04 03:35:51;;;;;;;3.40;0.73;;;2.80;99.90;;;;;;5050642;28;20451;-65
2023/02/04 03:38:17;;;;;;;0.63;0.40;;;2.80;99.90;;;;;;5048264;28;20039;-65
2023/02/04 03:40:44;;;;;;;0.30;0.30;;;2.80;99.90;;;;;;5048285;28;20467;-65
2023/02/04 03:43:10;;;;;;;1.30;0.70;;;2.70;99.90;;;;;;5049510;28;20056;-65
2023/02/04 03:45:35;;;;;;;0.52;0.50;;;2.70;99.90;;;;;;5048476;28;20056;-65
2023/02/04 03:48:01;;;;;;;4.13;0.70;;;2.70;99.90;;;;;;5048260;28;20029;-65
2023/02/04 03:50:27;;;;;;;2.70;0.63;;;2.60;99.90;;;;;;5051449;28;20557;-65
2023/02/04 03:52:53;;;;;;;0.60;0.60;;;2.60;99.90;;;;;;5042436;28;20044;-66
2023/02/04 03:55:19;;;;;;;0.93;0.45;;;2.60;99.90;;;;;;5047527;28;20036;-65
2023/02/04 03:57:45;;;;;;;2.30;0.80;;;2.60;99.90;;;;;;5047588;28;20033;-65
2023/02/04 04:00:12;;;;;;;3.65;0.50;;;2.60;99.90;;;;;;5046511;28;20037;-65
2023/02/04 04:02:39;;;;;;;0.57;0.47;;;2.60;99.90;;;;;;5050116;28;20032;-65
2023/02/04 04:05:06;;;;;;;1.77;0.60;;;2.60;99.90;;;;;;5047043;28;20033;-65
2023/02/04 04:07:32;;;;;;;1.98;0.50;;;2.70;99.90;;;;;;5049100;28;20148;-65
2023/02/04 04:09:58;;;;;;;2.60;0.68;;;2.60;99.90;;;;;;5045675;28;20037;-65
2023/02/04 04:12:23;;;;;;;2.20;0.40;;;2.60;99.90;;;;;;5043389;28;20144;-65
2023/02/04 04:14:49;;;;;;;1.48;0.60;;;2.50;99.90;;;;;;5044883;28;20056;-65
2023/02/04 04:17:15;;;;;;;2.72;0.70;;;2.50;99.90;;;;;;5043366;28;20041;-65
2023/02/04 04:19:43;;;;;;;0.30;0.25;;;2.50;99.90;;;;;;5051291;28;20110;-65
2023/02/04 04:22:08;;;;;;;1.80;0.40;;;2.50;99.90;;;;;;5028639;28;20529;-65
2023/02/04 04:24:34;;;;;;;0.50;0.50;;;2.50;99.90;;;;;;5045619;28;20029;-65
2023/02/04 04:27:00;;;;;;;0.85;0.52;;;2.50;99.90;;;;;;5046996;28;20546;-65
2023/02/04 04:29:26;;;;;;;1.08;0.35;;;2.50;99.90;;;;;;5047878;28;20561;-65
2023/02/04 04:31:51;;;;;;;0.98;0.60;;;2.50;99.90;;;;;;5045550;28;20036;-65
2023/02/04 04:34:17;;;;;;;3.17;0.80;;;2.40;99.90;;;;;;5042422;28;20148;-65
2023/02/04 04:36:43;;;;;;;3.03;0.50;;;2.40;99.90;;;;;;5045921;28;20092;-65
2023/02/04 04:39:09;;;;;;;2.25;0.50;;;2.40;99.90;;;;;;5047970;28;20044;-65
2023/02/04 04:41:34;;;;;;;1.60;0.50;;;2.40;99.90;;;;;;5045992;28;20025;-65
2023/02/04 04:44:00;;;;;;;1.70;0.38;;;2.40;99.90;;;;;;5045041;28;20029;-65
2023/02/04 04:46:26;;;;;;;1.02;0.50;;;2.40;99.90;;;;;;5048661;28;20086;-65
2023/02/04 04:48:52;;;;;;;1.20;0.57;;;2.40;99.90;;;;;;5047738;28;20032;-65
2023/02/04 04:51:17;;;;;;;0.85;0.70;;;2.30;99.90;;;;;;5046092;28;20036;-65
2023/02/04 04:53:43;;;;;;;0.45;0.40;;;2.30;99.90;;;;;;5047534;28;20563;-64
2023/02/04 04:56:09;;;;;;;2.15;0.57;;;2.30;99.90;;;;;;5048153;28;20056;-65
2023/02/04 04:58:34;;;;;;;1.70;0.30;;;2.40;99.90;;;;;;5048973;28;20024;-65
2023/02/04 05:01:00;;;;;;;1.55;0.57;;;2.40;99.90;;;;;;5047624;28;20028;-65
2023/02/04 05:03:26;;;;;;;0.40;0.40;;;2.40;99.90;;;;;;5048045;28;20817;-65
2023/02/04 05:05:52;;;;;;;4.55;0.50;;;2.40;99.90;;;;;;5049406;28;20090;-65
2023/02/04 05:08:19;;;;;;;0.38;0.38;;;2.40;99.90;;;;;;5050967;28;20034;-65
2023/02/04 05:10:45;;;;;;;4.72;0.77;;;2.50;99.90;;;;;;5049929;28;20037;-65
2023/02/04 05:13:12;;;;;;;3.90;0.40;;;2.50;99.90;;;;;;5049199;28;20097;-65
2023/02/04 05:15:38;;;;;;;2.90;0.50;;;2.50;99.90;;;;;;5030513;28;20054;-65
2023/02/04 05:18:04;;;;;;;3.50;0.47;;;2.50;99.90;;;;;;5047912;28;20488;-65
2023/02/04 05:20:30;;;;;;;0.73;0.57;;;2.50;99.90;;;;;;5047667;28;20494;-65
2023/02/04 05:22:56;;;;;;;0.77;0.40;;;2.50;99.90;;;;;;5049213;28;20040;-64
2023/02/04 05:25:22;;;;;;;1.58;0.63;;;2.50;99.90;;;;;;5051284;28;20032;-65
2023/02/04 05:27:48;;;;;;;2.78;0.63;;;2.50;99.90;;;;;;5046855;28;20033;-65
2023/02/04 05:30:14;;;;;;;2.85;0.65;;;2.40;99.90;;;;;;5049005;28;20047;-65
2023/02/04 05:32:40;;;;;;;1.83;0.57;;;2.40;99.90;;;;;;5051667;28;20099;-65
2023/02/04 05:35:07;;;;;;;2.20;0.45;;;2.40;99.90;;;;;;5049181;28;20115;-65
2023/02/04 05:37:33;;;;;;;2.65;0.43;;;2.40;99.90;;;;;;5051846;28;20032;-65
2023/02/04 05:39:58;;;;;;;7.80;0.88;;;2.50;99.90;;;;;;5050111;28;20855;-65
2023/02/04 05:42:24;;;;;;;1.50;0.70;;;2.50;99.90;;;;;;5049053;28;20017;-65
2023/02/04 05:44:50;;;;;;;0.47;0.47;;;2.40;99.90;;;;;;5052200;28;20032;-65
2023/02/04 05:47:15;;;;;;;0.80;0.40;;;2.40;99.90;;;;;;5044580;28;20033;-65
2023/02/04 05:49:41;;;;;;;1.95;0.55;;;2.40;99.90;;;;;;5049592;28;20089;-65
2023/02/04 05:52:07;;;;;;;4.97;0.75;;;2.40;99.90;;;;;;5042877;28;20033;-65
2023/02/04 05:54:33;;;;;;;2.15;0.70;;;2.30;99.90;;;;;;5049296;28;20029;-65
2023/02/04 05:56:58;;;;;;;2.30;0.50;;;2.30;99.90;;;;;;5051584;28;20025;-65
2023/02/04 05:59:24;;;;;;;0.95;0.60;;;2.30;99.90;;;;;;5044008;28;20040;-65
2023/02/04 06:01:50;;;;;;;1.88;0.65;;;2.30;99.90;;;;;;5048501;28;20073;-65
2023/02/04 06:04:16;;;;;;;7.78;0.75;;;2.20;99.90;;;;;;5048766;28;20076;-65
2023/02/04 06:06:43;;;;;;;1.58;0.68;;;2.30;99.90;;;;;;5050252;28;20032;-65
2023/02/04 06:09:09;;;;;;;1.73;0.80;;;2.20;99.90;;;;;;5048266;28;20040;-65
2023/02/04 06:11:35;;;;;;;2.03;0.60;;;2.20;99.90;;;;;;5046439;28;20033;-65
2023/02/04 06:14:01;;;;;;;1.90;0.70;;;2.20;99.90;;;;;;5048105;28;20500;-65
2023/02/04 06:16:26;;;;;;;5.35;0.80;;;2.20;99.90;;;;;;5049408;28;20035;-65
2023/02/04 06:18:52;;;;;;;1.70;0.60;;;2.20;99.90;;;;;;5048120;28;20480;-64
2023/02/04 06:21:18;;;;;;;2.60;0.70;;;2.20;99.90;;;;;;5030619;28;20052;-65
2023/02/04 06:23:44;;;;;;;1.70;0.70;;;2.10;99.90;;;;;;5048700;28;20025;-65
2023/02/04 06:26:10;;;;;;;1.27;0.70;;;2.10;99.90;;;;;;5042332;28;20029;-65
2023/02/04 06:28:35;;;;;;;5.57;1.40;;;2.10;99.90;;;;;;5046392;28;20056;-65
2023/02/04 06:31:01;;;;;;;2.53;0.65;;;2.10;99.90;;;;;;5045857;28;20028;-65
2023/02/04 06:33:27;;;;;;;2.83;0.90;;;2.10;99.90;;;;;;5043547;28;20033;-64
2023/02/04 06:35:53;;;;;;;3.75;1.10;;;2.10;99.90;;;;;;5043926;28;20108;-65
2023/02/04 06:38:19;;;;;;;2.80;1.38;;;2.10;99.90;;;;;;5038736;28;20924;-65
2023/02/04 06:40:48;;;;;;;1.95;1.35;;;2.10;99.90;;;;;;5040474;28;20039;-65
2023/02/04 06:43:14;;;;;;;3.70;1.10;;;2.10;99.90;;;;;;5038303;28;20029;-64
2023/02/04 06:45:41;;;;;;;2.40;1.25;;;2.00;99.90;;;;;;5047056;28;20068;-65
2023/02/04 06:48:06;;;;;;;3.33;0.95;;;2.00;99.90;;;;;;5038120;28;20814;-65
2023/02/04 06:50:32;;;;;;;2.92;0.85;;;2.00;99.90;;;;;;5049093;28;20028;-65
2023/02/04 06:52:58;;;;;;;2.08;0.77;;;2.00;99.90;;;;;;5040440;28;20040;-65
2023/02/04 06:55:24;;;;;;;1.45;0.57;;;2.00;99.90;;;;;;5043918;28;20060;-64
2023/02/04 06:57:50;;;;;;;2.92;0.70;;;2.00;99.90;;;;;;5045517;28;20044;-65
2023/02/04 07:00:15;;;;;;;2.30;0.80;;;2.00;99.90;;;;;;5045744;28;20028;-64
2023/02/04 07:02:41;;;;;;;3.00;0.45;;;2.10;99.90;;;;;;5046069;28;20034;-64
2023/02/04 07:05:08;;;;;;;2.78;0.60;;;2.20;99.90;;;;;;5038783;28;20389;-64
2023/02/04 07:07:34;;;;;;;2.05;0.73;;;2.30;99.90;;;;;;5044271;28;20812;-65
2023/02/04 07:10:00;;;;;;;0.32;0.30;;;2.30;99.90;;;;;;5049468;28;20021;-65
2023/02/04 07:12:26;;;;;;;2.22;0.45;;;2.40;99.90;;;;;;5045547;28;20030;-65
2023/02/04 07:14:52;;;;;;;2.50;0.50;;;2.40;99.90;;;;;;5042504;28;20036;-65
2023/02/04 07:17:17;;;;;;;1.75;0.73;;;2.40;99.90;;;;;;5048226;28;20340;-65
2023/02/04 07:19:43;;;;;;;1.65;0.55;;;2.40;99.90;;;;;;5045064;28;20036;-64
2023/02/04 07:22:09;;;;;;;3.75;0.65;;;2.50;99.90;;;;;;5045974;28;20039;-63
2023/02/04 07:24:35;;;;;;;0.77;0.47;;;2.50;99.90;;;;;;5052236;28;20025;-66
2023/02/04 07:27:00;;;;;;;1.38;0.60;;;2.50;99.90;;;;;;5044730;28;20028;-64
2023/02/04 07:29:26;;;;;;;0.88;0.50;;;2.50;99.90;;;;;;5026895;28;20100;-65
2023/02/04 07:31:53;;;;;;;2.10;1.00;;;2.50;99.90;;;;;;5045766;28;20123;-64
2023/02/04 07:34:19;;;;;;;3.10;1.10;;;2.50;99.90;;;;;;5043626;28;20037;-65
2023/02/04 07:36:45;;;;;;;4.85;1.30;;;2.60;99.90;;;;;;5045890;28;20029;-64
2023/02/04 07:39:10;;;;;;;1.25;0.80;;;2.60;99.90;;;;;;5048476;28;20041;-64
2023/02/04 07:41:36;;;;;;;3.78;1.30;;;2.60;99.90;;;;;;5042566;28;20020;-64
2023/02/04 07:44:02;;;;;;;3.20;1.13;;;2.60;99.90;;;;;;5044095;28;20060;-69
2023/02/04 07:46:28;;;;;;;3.40;1.30;;;2.70;99.90;;;;;;5041574;28;20037;-65
2023/02/04 07:48:54;;;;;;;2.65;1.33;;;2.70;99.90;;;;;;5045525;28;20029;-64
2023/02/04 07:51:20;;;;;;;2.22;0.70;;;2.70;99.90;;;;;;5037070;28;20080;-64
2023/02/04 07:53:46;;;;;;;1.50;0.77;;;2.70;99.90;;;;;;5040333;28;20584;-65
2023/02/04 07:56:12;;;;;;;2.20;0.60;;;2.80;99.90;;;;;;5042676;28;20094;-65
2023/02/04 07:58:38;;;;;;;1.70;0.50;;;2.80;99.90;;;;;;5043396;28;20159;-62
2023/02/04 08:01:04;;;;;;;0.50;0.30;;;2.80;99.90;;;;;;5042228;28;20025;-67
2023/02/04 08:03:29;;;;;;;1.35;0.63;;;2.90;99.90;;;;;;5047435;28;20025;-65
2023/02/04 08:05:55;;;;;;;0.75;0.40;;;3.00;99.90;;;;;;5025696;28;20094;-65
2023/02/04 08:08:21;;;;;;;0.70;0.70;;;3.10;99.90;;;;;;5043060;28;20035;-65
2023/02/04 08:10:47;;;;;;;2.17;0.82;;;3.10;99.90;;;;;;5042356;28;20036;-65
2023/02/04 08:13:12;;;;;;;1.63;0.95;;;3.20;99.90;;;;;;5041354;28;20079;-65
2023/02/04 08:15:38;;;;;;;2.70;0.98;;;3.30;99.90;;;;;;5047212;28;20043;-66
2023/02/04 08:18:04;;;;;;;2.90;1.10;;;3.40;99.90;;;;;;5043165;28;20645;-66
2023/02/04 08:20:30;;;;;;;2.28;1.08;;;3.60;99.90;;;;;;5048288;28;20033;-66
2023/02/04 08:22:56;;;;;;;4.65;1.50;;;3.70;99.90;;;;;;5044244;28;20032;-65
2023/02/04 08:25:22;;;;;;;2.53;1.17;;;3.80;99.90;;;;;;5043226;28;20025;-66
2023/02/04 08:27:47;;;;;;;3.53;0.88;;;3.80;99.90;;;;;;5046092;28;20056;-66
2023/02/04 08:30:13;;;;;;;1.10;0.77;;;3.90;99.90;;;;;;5037309;28;20029;-65
2023/02/04 08:32:39;;;;;;;2.90;0.80;;;3.90;99.90;;;;;;5045367;28;20043;-66
2023/02/04 08:35:06;;;;;;;1.40;1.02;;;4.00;99.90;;;;;;5042445;28;20029;-66
2023/02/04 08:37:32;;;;;;;3.80;1.33;;;4.10;99.90;;;;;;5043643;28;20108;-66
2023/02/04 08:39:58;;;;;;;4.80;1.00;;;4.10;99.90;;;;;;5049298;28;20024;-66
2023/02/04 08:42:24;;;;;;;3.97;0.75;;;4.20;99.90;;;;;;5044791;28;20451;-66
2023/02/04 08:44:49;;;;;;;2.15;0.68;;;4.20;99.70;;;;;;5051203;28;20036;-66
2023/02/04 08:47:15;;;;;;;1.73;0.60;;;4.20;99.70;;;;;;5047582;28;20037;-66
2023/02/04 08:49:41;;;;;;;3.30;0.90;;;4.30;99.30;;;;;;5048492;28;20039;-66
2023/02/04 08:52:07;;;;;;;1.38;0.70;;;4.40;99.20;;;;;;5048274;28;20037;-66
2023/02/04 08:54:34;;;;;;;2.50;0.70;;;4.50;99.30;;;;;;5045689;28;20079;-66
2023/02/04 08:57:00;;;;;;;2.75;0.82;;;4.70;99.00;;;;;;5042463;28;20430;-64
2023/02/04 08:59:26;;;;;;;4.60;0.77;;;4.80;98.70;;;;;;5048066;28;20033;-66
2023/02/04 09:01:52;;;;;;;3.38;0.80;;;5.00;98.30;;;;;;5049955;28;20768;-67
2023/02/04 09:04:18;;;;;;;0.77;0.40;;;5.10;98.00;;;;;;5050268;28;20128;-66
2023/02/04 09:06:45;;;;;;;2.20;0.60;;;5.20;97.70;;;;;;5044899;28;20052;-67
2023/02/04 09:09:11;;;;;;;0.70;0.57;;;5.30;97.50;;;;;;5044828;28;20123;-63
2023/02/04 09:11:37;;;;;;;2.63;0.70;;;5.40;97.70;;;;;;5042961;28;20724;-67
2023/02/04 09:14:03;;;;;;;2.53;0.60;;;5.60;97.50;;;;;;5046864;28;20024;-66
2023/02/04 09:16:28;;;;;;;2.35;0.70;;;5.70;97.30;;;;;;5052856;28;20593;-65
2023/02/04 09:18:54;;;;;;;1.45;0.77;;;5.90;97.00;;;;;;5048492;28;20040;-66
2023/02/04 09:21:20;;;;;;;2.67;0.60;;;6.20;96.60;;;;;;5041171;28;20105;-67
2023/02/04 09:23:47;;;;;;;1.75;0.50;;;6.40;96.00;;;;;;5046607;28;20528;-65
2023/02/04 09:26:13;;;;;;;1.85;0.60;;;6.50;95.10;;;;;;5045116;28;20048;-65
2023/02/04 09:28:39;;;;;;;1.95;0.57;;;6.60;94.50;;;;;;5050600;28;20114;-65
2023/02/04 09:31:05;;;;;;;3.17;1.55;;;6.60;93.70;;;;;;5040718;28;20021;-65
2023/02/04 09:33:32;;;;;;;3.90;1.90;;;7.00;94.00;;;;;;5040912;28;20029;-65
2023/02/04 09:35:58;;;;;;;5.97;2.50;;;8.20;91.90;;;;;;5041198;28;20106;-65
2023/02/04 09:38:24;;;;;;;2.80;1.40;;;9.40;88.00;;;;;;5051456;28;20029;-66
2023/02/04 09:40:54;;;;;;;2.28;1.00;;;10.30;83.30;;;;;;5042276;28;20427;-66
2023/02/04 09:43:26;;;;;;;1.55;0.70;;;10.60;80.80;;;;;;5044357;28;20116;-67
2023/02/04 09:45:53;;;;;;;3.38;1.35;;;10.70;77.50;;;;;;5046086;28;20823;-67
2023/02/04 09:48:21;;;;;;;3.38;0.90;;;10.50;77.00;;;;;;5045315;28;20033;-67
2023/02/04 09:50:47;;;;;;;2.40;0.90;;;10.30;77.50;;;;;;5048825;28;20035;-67
2023/02/04 09:53:17;;;;;;;5.05;2.63;;;10.20;77.40;;;;;;5051793;28;20058;-66
2023/02/04 09:55:45;;;;;;;4.55;1.25;;;10.40;76.50;;;;;;5049147;28;20051;-64
2023/02/04 09:58:17;;;;;;;3.95;1.15;;;10.90;74.80;;;;;;5037575;28;20151;-68
2023/02/04 10:00:54;;;;;;;3.00;1.30;;;11.50;72.00;;;;;;5042286;28;20029;-68
2023/02/04 10:03:23;;;;;;;2.25;1.30;;;11.90;69.90;;;;;;5049079;28;20825;-65
2023/02/04 10:05:50;;;;;;;2.25;1.20;;;12.50;67.80;;;;;;5042853;28;20119;-66
2023/02/04 10:08:30;;;;;;;5.60;1.25;;;13.00;64.90;;;;;;5044776;28;20025;-66
2023/02/04 10:10:56;;;;;;;3.45;1.17;;;13.60;62.50;;;;;;5044562;28;20047;-66
2023/02/04 10:13:32;;;;;;;2.78;1.67;;;13.90;59.20;;;;;;5049841;28;20032;-66
2023/02/04 10:15:58;;;;;;;2.75;1.45;;;13.80;58.90;;;;;;5044286;28;20692;-66
2023/02/04 10:18:30;;;;;;;1.80;1.38;;;13.50;60.50;;;;;;5046370;28;20034;-66
2023/02/04 10:21:23;;;;;;;3.08;0.82;;;13.60;60.80;;;;;;5043890;28;20033;-65
2023/02/04 10:23:55;;;;;;;1.00;0.40;;;13.90;60.10;;;;;;5041617;28;20020;-71
2023/02/04 10:26:24;;;;;;;3.30;0.90;;;14.10;60.00;;;;;;5046420;28;20559;-66
2023/02/04 10:28:49;;;;;;;1.70;0.60;;;13.80;58.80;;;;;;5042331;28;20021;-70
2023/02/04 10:31:30;;;;;;;2.85;0.60;;;13.60;59.00;;;;;;5042688;28;20389;-68
2023/02/04 10:34:17;;;;;;;1.73;0.47;;;13.00;59.40;;;;;;5045852;28;20033;-65
2023/02/04 10:36:46;;;;;;;0.95;0.80;;;12.80;61.30;;;;;;5045970;28;21092;-65
2023/02/04 10:39:14;;;;;;;4.32;1.45;;;13.20;60.90;;;;;;5042682;28;20037;-66
2023/02/04 10:41:47;;;;;;;1.48;0.43;;;13.60;59.60;;;;;;5049551;28;20032;-66
2023/02/04 10:44:15;;;;;;;2.00;0.60;;;14.50;57.00;;;;;;5038153;28;20480;-66
2023/02/04 10:46:41;;;;;;;2.95;0.70;;;15.70;53.40;;;;;;5045324;28;20630;-66
2023/02/04 10:49:21;;;;;;;3.70;0.30;;;15.80;51.00;;;;;;5040146;28;20119;-66
2023/02/04 10:51:48;;;;;;;5.80;0.50;;;14.50;52.10;;;;;;5041585;28;20115;-67
2023/02/04 10:54:29;;;;;;;3.63;0.40;;;14.10;54.30;;;;;;5039128;28;20089;-66
2023/02/04 10:57:18;;;;;;;2.35;0.60;;;14.90;54.30;;;;;;5047919;28;20056;-65
2023/02/04 10:59:45;;;;;;;2.67;0.45;;;15.20;52.80;;;;;;5036276;28;20029;-66
2023/02/04 11:02:31;;;;;;;1.77;0.57;;;14.90;52.00;;;;;;5044479;28;20844;-67
2023/02/04 11:04:57;;;;;;;1.23;0.60;;;14.90;51.90;;;;;;5047012;28;20029;-66
2023/02/04 11:07:23;;;;;;;0.65;0.30;;;15.20;51.30;;;;;;5048461;28;20068;-68
2023/02/04 11:09:49;;;;;;;2.03;0.90;;;15.80;51.10;;;;;;5046231;28;20032;-67
2023/02/04 11:12:35;;;;;;;1.58;0.40;;;15.70;50.00;;;;;;5039170;28;20041;-68
2023/02/04 11:15:01;;;;;;;1.77;0.40;;;14.90;50.20;;;;;;5042310;28;20100;-66
2023/02/04 11:17:31;;;;;;;2.15;0.57;;;14.10;52.80;;;;;;5046260;28;20514;-68
2023/02/04 11:19:58;;;;;;;1.38;0.57;;;15.10;52.70;;;;;;5042888;28;20067;-65
2023/02/04 11:22:43;;;;;;;2.03;0.40;;;16.20;48.10;;;;;;5046165;28;20470;-67
2023/02/04 11:25:33;;;;;;;2.33;0.50;;;16.20;46.50;;;;;;5041794;28;20033;-67
2023/02/04 11:27:59;;;;;;;1.38;0.50;;;15.40;49.00;;;;;;5044645;28;20036;-66
2023/02/04 11:30:32;;;;;;;0.60;0.50;;;14.60;50.90;;;;;;5047906;28;20125;-66
2023/02/04 11:33:04;;;;;;;0.63;0.40;;;13.40;53.00;;;;;;5041240;28;20887;-65
2023/02/04 11:35:30;;;;;;;4.03;0.75;;;12.30;56.00;;;;;;5049631;28;20033;-66
2023/02/04 11:37:57;;;;;;;1.58;0.47;;;11.40;58.80;;;;;;5045845;28;20118;-66
2023/02/04 11:40:36;;;;;;;1.15;0.40;;;10.70;60.00;;;;;;5042280;28;20569;-65
2023/02/04 11:43:14;;;;;;;0.45;0.28;;;10.20;62.10;;;;;;5042470;28;20017;-65
2023/02/04 11:45:41;;;;;;;0.50;0.47;;;9.80;64.20;;;;;;5048292;28;20044;-65
2023/02/04 11:48:14;;;;;;;3.10;0.55;;;9.60;64.50;;;;;;5041341;28;20028;-65
2023/02/04 11:50:40;;;;;;;0.98;0.28;;;9.40;66.00;;;;;;5039845;28;20055;-64
2023/02/04 11:53:09;;;;;;;0.90;0.43;;;9.20;65.50;;;;;;5043291;28;20043;-66
2023/02/04 11:55:42;;;;;;;2.47;0.35;;;9.00;66.60;;;;;;5044950;28;20037;-65
2023/02/04 11:58:17;;;;;;;0.98;0.40;;;8.70;68.20;;;;;;5043645;28;20120;-65
2023/02/04 12:00:43;;;;;;;3.08;0.40;;;8.50;68.40;;;;;;5045700;28;20060;-65
2023/02/04 12:03:30;;;;;;;0.30;0.20;;;8.30;69.40;;;;;;5034988;28;20105;-66
2023/02/04 12:05:57;;;;;;;1.98;0.77;;;8.30;71.40;;;;;;5043127;28;20082;-65
2023/02/04 12:08:23;;;;;;;2.53;0.60;;;8.30;70.80;;;;;;5028454;28;20086;-66
2023/02/04 12:10:50;;;;;;;4.00;0.88;;;8.30;71.50;;;;;;5039677;28;20033;-63
2023/02/04 12:13:21;;;;;;;0.35;0.20;;;8.40;72.60;;;;;;5043689;28;20032;-65
2023/02/04 12:15:57;;;;;;;0.35;0.28;;;8.60;72.30;;;;;;5045780;28;20040;-64
2023/02/04 12:18:23;;;;;;;;;;;8.80;71.20;;;;;;5045922;28;20025;-65
2023/02/04 12:20:49;;;;;;;1.40;0.30;;;8.90;70.10;;;;;;5046176;28;19924;-66
2023/02/04 12:23:15;;;;;;;2.53;0.50;;;9.00;69.40;;;;;;5045555;28;20417;-66
2023/02/04 12:25:40;;;;;;;4.20;0.70;;;9.10;68.70;;;;;;5049347;28;20664;-66
2023/02/04 12:28:06;;;;;;;1.92;0.50;;;9.20;67.30;;;;;;5041958;28;20100;-66
2023/02/04 12:30:32;;;;;;;3.13;1.30;;;9.20;65.90;;;;;;5038165;28;20443;-65
2023/02/04 12:32:58;;;;;;;2.25;0.75;;;9.20;68.30;;;;;;5045316;28;20541;-65
2023/02/04 12:35:23;;;;;;;4.07;0.95;;;9.20;69.10;;;;;;5043570;28;20135;-66
2023/02/04 12:37:49;;;;;;;1.65;1.20;;;9.10;69.20;;;;;;5043416;28;20032;-65
2023/02/04 12:40:18;;;;;;;1.83;1.00;;;9.00;68.30;;;;;;5044630;28;20488;-66
2023/02/04 12:42:44;;;;;;;0.30;0.30;;;8.80;68.70;;;;;;5047292;28;20215;-66
2023/02/04 12:45:11;;;;;;;0.73;0.47;;;8.60;68.30;;;;;;5043405;28;20041;-66
2023/02/04 12:47:38;;;;;;;0.77;0.57;;;8.30;68.60;;;;;;5048325;28;20048;-66
2023/02/04 12:50:05;;;;;;;0.57;0.40;;;8.10;69.20;;;;;;5039803;28;20032;-66
2023/02/04 12:52:31;;;;;;;0.80;0.40;;;8.00;68.80;;;;;;5041270;28;20816;-66
2023/02/04 12:54:57;;;;;;;1.23;0.80;;;7.90;69.60;;;;;;5044376;28;20040;-66
2023/02/04 12:57:23;;;;;;;0.93;0.73;;;7.90;70.40;;;;;;5043831;28;20120;-66